createdAt,value
2022-10-19T00:01:13.030Z,101336.72
2022-10-19T00:03:41.750Z,101335.84
2022-10-19T00:06:27.717Z,101328.19
2022-10-19T00:09:02.263Z,101338.78
2022-10-19T00:11:31.976Z,101337.81
2022-10-19T00:14:00.736Z,101326.44
2022-10-19T00:16:31.121Z,101329.78
2022-10-19T00:19:00.131Z,101326.25
2022-10-19T00:21:28.316Z,101309.16
2022-10-19T00:23:55.893Z,101320.72
2022-10-19T00:26:23.847Z,101311.78
2022-10-19T00:28:56.239Z,101306.34
2022-10-19T00:31:24.389Z,101305.69
2022-10-19T00:33:52.953Z,101296.94
2022-10-19T00:36:29.876Z,101297.47
2022-10-19T00:38:58.334Z,101300.38
2022-10-19T00:41:28.864Z,101292.06
2022-10-19T00:43:56.254Z,101283.06
2022-10-19T00:46:25.329Z,101285.31
2022-10-19T00:48:57.318Z,101284.97
2022-10-19T00:51:27.751Z,101277.03
2022-10-19T00:53:56.819Z,101277.84
2022-10-19T00:56:24.504Z,101269.09
2022-10-19T00:58:52.585Z,101270.31
2022-10-19T01:01:23.677Z,101270.31
2022-10-19T01:03:51.261Z,101271.72
2022-10-19T01:06:19.811Z,101254.50
2022-10-19T01:08:47.220Z,101256.31
2022-10-19T01:11:28.692Z,101261.72
2022-10-19T01:13:56.384Z,101254.06
2022-10-19T01:16:52.572Z,101262.75
2022-10-19T01:19:42.424Z,101253.31
2022-10-19T01:22:40.723Z,101254.34
2022-10-19T01:25:23.641Z,101261.38
2022-10-19T01:28:05.903Z,101266.47
2022-10-19T01:31:08.527Z,101273.59
2022-10-19T01:33:35.827Z,101278.38
2022-10-19T01:36:17.071Z,101274.19
2022-10-19T01:39:23.446Z,101269.78
2022-10-19T01:41:57.779Z,101268.44
2022-10-19T01:44:39.816Z,101259.84
2022-10-19T01:47:15.085Z,101257.78
2022-10-19T01:49:49.580Z,101252.09
2022-10-19T01:52:21.176Z,101248.38
2022-10-19T01:54:52.212Z,101250.16
2022-10-19T01:57:25.623Z,101248.19
2022-10-19T01:59:54.377Z,101244.47
2022-10-19T02:02:24.192Z,101241.56
2022-10-19T02:04:55.215Z,101240.25
2022-10-19T02:07:24.697Z,101238.28
2022-10-19T02:09:52.465Z,101240.47
2022-10-19T02:12:21.522Z,101253.41
2022-10-19T02:14:55.753Z,101238.78
2022-10-19T02:17:38.123Z,101244.06
2022-10-19T02:20:06.738Z,101245.22
2022-10-19T02:22:34.789Z,101230.94
2022-10-19T02:25:03.401Z,101230.81
2022-10-19T02:27:31.319Z,101231.84
2022-10-19T02:30:01.576Z,101230.63
2022-10-19T02:32:29.063Z,101233.72
2022-10-19T02:34:57.131Z,101233.37
2022-10-19T02:37:25.738Z,101228.38
2022-10-19T02:39:55.076Z,101217.13
2022-10-19T02:43:00.435Z,101210.88
2022-10-19T02:45:31.886Z,101213.19
2022-10-19T02:48:07.699Z,101207.47
2022-10-19T02:50:36.047Z,101213.53
2022-10-19T02:53:03.571Z,101213.84
2022-10-19T02:55:31.389Z,101215.88
2022-10-19T02:57:59.372Z,101211.12
2022-10-19T03:00:26.925Z,101204.22
2022-10-19T03:02:54.314Z,101201.84
2022-10-19T03:05:21.928Z,101199.25
2022-10-19T03:07:49.424Z,101191.12
2022-10-19T03:10:16.839Z,101191.97
2022-10-19T03:12:44.494Z,101180.34
2022-10-19T03:15:16.305Z,101187.09
2022-10-19T03:17:44.156Z,101196.69
2022-10-19T03:20:13.042Z,101195.41
2022-10-19T03:22:40.460Z,101197.06
2022-10-19T03:25:08.638Z,101193.50
2022-10-19T03:27:36.305Z,101195.12
2022-10-19T03:30:09.882Z,101195.50
2022-10-19T03:32:37.761Z,101188.12
2022-10-19T03:35:05.759Z,101193.16
2022-10-19T03:37:33.515Z,101188.31
2022-10-19T03:40:03.689Z,101197.75
2022-10-19T03:42:31.233Z,101195.22
2022-10-19T03:44:58.700Z,101197.09
2022-10-19T03:47:26.648Z,101186.16
2022-10-19T03:49:56.575Z,101182.06
2022-10-19T03:52:23.947Z,101186.75
2022-10-19T03:54:51.759Z,101192.78
2022-10-19T03:57:19.373Z,101197.47
2022-10-19T03:59:46.863Z,101201.84
2022-10-19T04:02:14.523Z,101195.03
2022-10-19T04:04:42.239Z,101190.00
2022-10-19T04:07:09.629Z,101184.69
2022-10-19T04:09:40.051Z,101191.41
2022-10-19T04:12:07.703Z,101197.31
2022-10-19T04:14:52.371Z,101207.88
2022-10-19T04:17:22.829Z,101212.16
2022-10-19T04:19:50.519Z,101216.63
2022-10-19T04:22:17.871Z,101219.41
2022-10-19T04:24:45.550Z,101220.84
2022-10-19T04:27:13.804Z,101208.59
2022-10-19T04:29:41.201Z,101208.69
2022-10-19T04:32:08.908Z,101208.12
2022-10-19T04:34:39.190Z,101202.91
2022-10-19T04:37:07.480Z,101202.72
2022-10-19T04:39:39.425Z,101193.47
2022-10-19T04:42:06.921Z,101204.78
2022-10-19T04:44:34.605Z,101210.50
2022-10-19T04:47:02.160Z,101197.62
2022-10-19T04:49:29.620Z,101194.16
2022-10-19T04:51:57.265Z,101193.66
2022-10-19T04:54:24.647Z,101187.19
2022-10-19T04:56:53.800Z,101196.25
2022-10-19T04:59:21.575Z,101197.59
2022-10-19T05:01:49.042Z,101203.84
2022-10-19T05:04:16.484Z,101185.28
2022-10-19T05:06:44.188Z,101212.25
2022-10-19T05:09:11.604Z,101211.41
2022-10-19T05:11:39.308Z,101206.75
2022-10-19T05:14:07.048Z,101200.94
2022-10-19T05:16:34.630Z,101209.34
2022-10-19T05:19:02.056Z,101228.31
2022-10-19T05:21:29.814Z,101215.72
2022-10-19T05:23:57.582Z,101214.88
2022-10-19T05:26:27.390Z,101213.56
2022-10-19T05:28:57.893Z,101215.59
2022-10-19T05:31:33.521Z,101207.47
2022-10-19T05:34:03.163Z,101207.75
2022-10-19T05:36:36.824Z,101203.81
2022-10-19T05:39:08.400Z,101206.13
2022-10-19T05:41:36.599Z,101210.78
2022-10-19T05:44:05.284Z,101208.19
2022-10-19T05:46:33.489Z,101204.13
2022-10-19T05:49:00.927Z,101205.00
2022-10-19T05:51:33.245Z,101208.81
2022-10-19T05:54:06.638Z,101202.97
2022-10-19T05:56:34.704Z,101201.72
2022-10-19T05:59:06.070Z,101196.37
2022-10-19T06:01:34.690Z,101195.12
2022-10-19T06:04:03.543Z,101198.12
2022-10-19T06:06:31.585Z,101182.94
2022-10-19T06:08:59.981Z,101188.50
2022-10-19T06:11:31.427Z,101189.87
2022-10-19T06:14:00.913Z,101194.25
2022-10-19T06:16:30.185Z,101198.59
2022-10-19T06:18:58.909Z,101209.25
2022-10-19T06:21:29.564Z,101211.12
2022-10-19T06:24:03.280Z,101209.13
2022-10-19T06:26:33.003Z,101208.97
2022-10-19T06:29:02.334Z,101207.56
2022-10-19T06:31:34.107Z,101201.81
2022-10-19T06:34:02.420Z,101205.19
2022-10-19T06:36:32.103Z,101201.81
2022-10-19T06:39:02.053Z,101208.12
2022-10-19T06:41:31.369Z,101214.13
2022-10-19T06:44:05.888Z,101212.66
2022-10-19T06:46:34.296Z,101211.22
2022-10-19T06:49:02.453Z,101214.97
2022-10-19T06:51:32.289Z,101214.62
2022-10-19T06:54:00.268Z,101221.53
2022-10-19T06:56:27.897Z,101229.81
2022-10-19T06:58:58.604Z,101233.84
2022-10-19T07:01:26.971Z,101232.03
2022-10-19T07:03:55.306Z,101226.78
2022-10-19T07:06:23.488Z,101227.84
2022-10-19T07:08:53.482Z,101227.75
2022-10-19T07:11:22.692Z,101231.84
2022-10-19T07:13:50.565Z,101236.59
2022-10-19T07:16:21.072Z,101240.19
2022-10-19T07:18:53.132Z,101238.94
2022-10-19T07:21:23.238Z,101236.69
2022-10-19T07:23:50.945Z,101228.88
2022-10-19T07:26:23.372Z,101236.06
2022-10-19T07:28:51.405Z,101236.19
2022-10-19T07:31:21.608Z,101231.19
2022-10-19T07:34:00.880Z,101229.59
2022-10-19T07:36:31.070Z,101235.31
2022-10-19T07:39:05.326Z,101232.28
2022-10-19T07:41:34.668Z,101222.69
2022-10-19T07:44:02.213Z,101206.47
2022-10-19T07:46:33.461Z,101222.88
2022-10-19T07:49:02.016Z,101231.22
2022-10-19T07:51:30.115Z,101223.75
2022-10-19T07:53:58.959Z,101226.59
2022-10-19T07:56:28.620Z,101232.44
2022-10-19T07:58:57.799Z,101218.53
2022-10-19T08:01:28.487Z,101225.50
2022-10-19T08:04:55.582Z,101234.41
2022-10-19T08:06:45.901Z,101226.59
2022-10-19T08:09:28.050Z,101223.69
2022-10-19T08:12:01.529Z,101230.88
2022-10-19T08:14:29.211Z,101222.50
2022-10-19T08:16:57.078Z,101207.19
2022-10-19T08:19:26.534Z,101222.28
2022-10-19T08:21:56.593Z,101214.34
2022-10-19T08:24:25.684Z,101215.00
2022-10-19T08:26:53.152Z,101217.78
2022-10-19T08:29:21.657Z,101215.66
2022-10-19T08:31:49.870Z,101212.87
2022-10-19T08:34:17.887Z,101216.63
2022-10-19T08:36:45.956Z,101205.75
2022-10-19T08:39:13.852Z,101212.78
2022-10-19T08:41:41.287Z,101211.28
2022-10-19T08:44:29.773Z,101208.25
2022-10-19T08:47:26.350Z,101206.56
2022-10-19T08:49:55.956Z,101205.78
2022-10-19T08:52:36.155Z,101202.53
2022-10-19T08:55:15.075Z,101217.34
2022-10-19T08:58:18.976Z,101224.63
2022-10-19T09:01:00.301Z,101218.41
2022-10-19T09:03:37.869Z,101220.50
2022-10-19T09:06:39.885Z,101213.63
2022-10-19T09:09:12.904Z,101215.44
2022-10-19T09:11:48.820Z,101207.28
2022-10-19T09:14:45.824Z,101208.34
2022-10-19T09:17:17.051Z,101207.50
2022-10-19T09:19:44.543Z,101202.69
2022-10-19T09:22:25.612Z,101205.34
2022-10-19T09:24:58.229Z,101199.72
2022-10-19T09:27:33.063Z,101214.28
2022-10-19T09:30:05.902Z,101200.66
2022-10-19T09:32:38.691Z,101203.59
2022-10-19T09:35:38.520Z,101204.47
2022-10-19T09:38:07.554Z,101210.31
2022-10-19T09:40:35.536Z,101212.66
2022-10-19T09:43:19.545Z,101208.66
2022-10-19T09:46:20.142Z,101219.38
2022-10-19T09:48:50.397Z,101213.84
2022-10-19T09:51:19.131Z,101199.09
2022-10-19T09:53:50.869Z,101213.94
2022-10-19T09:56:26.500Z,101204.38
2022-10-19T09:58:57.283Z,101212.06
2022-10-19T10:01:40.172Z,101205.66
2022-10-19T10:04:14.065Z,101203.88
2022-10-19T10:06:43.548Z,101212.06
2022-10-19T10:09:19.569Z,101217.88
2022-10-19T10:11:49.731Z,101222.38
2022-10-19T10:14:23.193Z,101220.37
2022-10-19T10:17:01.344Z,101206.94
2022-10-19T10:19:31.630Z,101204.62
2022-10-19T10:21:59.945Z,101204.78
2022-10-19T10:24:31.761Z,101206.94
2022-10-19T10:27:02.964Z,101202.78
2022-10-19T10:29:33.296Z,101198.84
2022-10-19T10:32:12.198Z,101196.84
2022-10-19T10:34:54.781Z,101198.47
2022-10-19T10:37:34.162Z,101192.84
2022-10-19T10:40:05.027Z,101183.81
2022-10-19T10:42:46.101Z,101184.50
2022-10-19T10:45:22.943Z,101176.28
2022-10-19T10:47:52.896Z,101176.75
2022-10-19T10:50:32.942Z,101171.41
2022-10-19T10:53:03.444Z,101161.75
2022-10-19T10:55:33.617Z,101167.81
2022-10-19T10:58:16.090Z,101163.84
2022-10-19T11:00:45.363Z,101160.06
2022-10-19T11:03:24.704Z,101158.44
2022-10-19T11:05:58.080Z,101155.09
2022-10-19T11:08:41.554Z,101150.50
2022-10-19T11:11:23.997Z,101152.13
2022-10-19T11:13:55.856Z,101140.59
2022-10-19T11:16:32.293Z,101150.50
2022-10-19T11:19:02.423Z,101138.94
2022-10-19T11:22:07.611Z,101143.44
2022-10-19T11:24:50.545Z,101142.37
2022-10-19T11:27:37.582Z,101140.62
2022-10-19T11:30:15.373Z,101149.59
2022-10-19T11:33:25.429Z,101147.28
2022-10-19T11:35:58.517Z,101139.88
2022-10-19T11:38:34.968Z,101131.53
2022-10-19T11:41:28.505Z,101135.03
2022-10-19T11:44:06.249Z,101142.44
2022-10-19T11:47:15.583Z,101137.91
2022-10-19T11:52:54.827Z,101135.56
2022-10-19T11:55:37.607Z,101131.22
2022-10-19T11:58:21.398Z,101126.66
2022-10-19T12:01:26.867Z,101127.06
2022-10-19T12:04:18.768Z,101125.34
2022-10-19T12:07:18.289Z,101119.69
2022-10-19T12:09:59.229Z,101124.91
2022-10-19T12:12:33.772Z,101126.78
2022-10-19T12:15:35.311Z,101118.94
2022-10-19T12:18:12.657Z,101119.16
2022-10-19T12:20:47.836Z,101115.47
2022-10-19T12:23:35.612Z,101115.94
2022-10-19T12:26:10.454Z,101109.38
2022-10-19T12:28:41.774Z,101113.75
2022-10-19T12:31:11.239Z,101101.13
2022-10-19T12:34:10.457Z,101100.72
2022-10-19T12:37:08.429Z,101096.09
2022-10-19T12:39:58.513Z,101090.59
2022-10-19T12:42:51.551Z,101094.03
2022-10-19T12:45:42.221Z,101091.66
2022-10-19T12:48:14.292Z,101075.19
2022-10-19T12:50:48.492Z,101091.81
2022-10-19T12:53:46.885Z,101093.91
2022-10-19T12:56:25.592Z,101091.25
2022-10-19T12:58:59.930Z,101099.31
2022-10-19T13:01:35.603Z,101097.56
2022-10-19T13:04:16.184Z,101093.69
2022-10-19T13:07:05.310Z,101092.59
2022-10-19T13:09:41.979Z,101093.75
2022-10-19T13:12:19.318Z,101094.37
2022-10-19T13:14:52.552Z,101096.62
2022-10-19T13:17:36.077Z,101098.03
2022-10-19T13:20:14.050Z,101099.22
2022-10-19T13:22:47.100Z,101105.19
2022-10-19T13:25:26.909Z,101102.06
2022-10-19T13:28:06.766Z,101105.69
2022-10-19T13:30:38.267Z,101106.88
2022-10-19T13:33:33.361Z,101109.81
2022-10-19T13:36:02.261Z,101107.81
2022-10-19T13:41:22.376Z,101091.72
2022-10-19T13:43:52.767Z,101107.34
2022-10-19T13:46:40.901Z,101103.00
2022-10-19T13:49:24.004Z,101104.50
2022-10-19T13:52:29.369Z,101112.38
2022-10-19T13:55:11.836Z,101105.34
2022-10-19T13:57:56.110Z,101109.56
2022-10-19T14:00:56.913Z,101107.13
2022-10-19T14:03:49.520Z,101104.00
2022-10-19T14:06:33.955Z,101106.44
2022-10-19T14:09:13.489Z,101109.56
2022-10-19T14:11:42.893Z,101107.78
2022-10-19T14:14:10.503Z,101105.56
2022-10-19T14:16:48.971Z,101103.06
2022-10-19T14:19:28.297Z,101105.38
2022-10-19T14:21:59.454Z,101102.53
2022-10-19T14:24:35.390Z,101096.91
2022-10-19T14:27:07.835Z,101106.59
2022-10-19T14:29:45.251Z,101099.34
2022-10-19T14:32:13.289Z,101104.75
2022-10-19T14:34:46.545Z,101104.31
2022-10-19T14:37:24.489Z,101101.47
2022-10-19T14:40:07.794Z,101100.16
2022-10-19T14:42:43.340Z,101105.16
2022-10-19T14:45:18.367Z,101100.69
2022-10-19T14:48:04.002Z,101101.50
2022-10-19T14:50:43.790Z,101101.34
2022-10-19T14:53:17.077Z,101093.38
2022-10-19T14:55:45.805Z,101094.37
2022-10-19T14:58:18.519Z,101088.06
2022-10-19T15:00:49.894Z,101089.06
2022-10-19T15:03:27.929Z,101085.44
2022-10-19T15:06:02.037Z,101093.75
2022-10-19T15:08:42.617Z,101095.56
2022-10-19T15:11:33.064Z,101088.72
2022-10-19T15:14:05.905Z,101093.38
2022-10-19T15:16:33.524Z,101094.03
2022-10-19T15:19:06.210Z,101093.69
2022-10-19T15:21:33.897Z,101095.34
2022-10-19T15:24:24.277Z,101089.03
2022-10-19T15:27:06.572Z,101093.97
2022-10-19T15:29:36.957Z,101089.44
2022-10-19T15:32:19.866Z,101087.59
2022-10-19T15:34:47.364Z,101091.88
2022-10-19T15:37:20.202Z,101091.19
2022-10-19T15:39:48.739Z,101086.53
2022-10-19T15:42:39.137Z,101086.66
2022-10-19T15:45:36.448Z,101091.44
2022-10-19T15:48:10.396Z,101084.06
2022-10-19T15:50:51.859Z,101096.28
2022-10-19T15:53:20.756Z,101090.09
2022-10-19T15:55:48.820Z,101093.38
2022-10-19T15:58:16.391Z,101093.91
2022-10-19T16:00:44.360Z,101102.69
2022-10-19T16:03:12.067Z,101093.50
2022-10-19T16:05:39.703Z,101103.31
2022-10-19T16:08:10.161Z,101102.47
2022-10-19T16:10:41.674Z,101105.91
2022-10-19T16:13:09.185Z,101115.22
2022-10-19T16:15:37.335Z,101117.00
2022-10-19T16:18:05.085Z,101134.47
2022-10-19T16:20:32.796Z,101131.00
2022-10-19T16:23:00.509Z,101137.44
2022-10-19T16:25:28.299Z,101137.19
2022-10-19T16:27:55.693Z,101139.78
2022-10-19T16:30:23.283Z,101138.87
2022-10-19T16:32:50.986Z,101147.72
2022-10-19T16:35:18.380Z,101148.09
2022-10-19T16:37:45.813Z,101150.66
2022-10-19T16:40:13.544Z,101157.22
2022-10-19T16:42:41.244Z,101159.66
2022-10-19T16:45:09.667Z,101163.84
2022-10-19T16:47:37.576Z,101167.91
2022-10-19T16:50:07.093Z,101164.03
2022-10-19T16:52:35.176Z,101174.50
2022-10-19T16:55:03.730Z,101171.47
2022-10-19T16:57:31.324Z,101185.00
2022-10-19T16:59:59.557Z,101183.03
2022-10-19T17:02:27.299Z,101173.09
2022-10-19T17:04:54.646Z,101198.25
2022-10-19T17:07:22.297Z,101193.81
2022-10-19T17:09:54.635Z,101193.53
2022-10-19T17:12:22.808Z,101192.84
2022-10-19T17:14:51.269Z,101203.88
2022-10-19T17:17:19.112Z,101205.12
2022-10-19T17:19:48.700Z,101205.41
2022-10-19T17:22:16.845Z,101210.97
2022-10-19T17:24:46.352Z,101212.38
2022-10-19T17:27:14.016Z,101217.13
2022-10-19T17:29:42.099Z,101222.00
2022-10-19T17:32:09.825Z,101229.13
2022-10-19T17:34:37.473Z,101230.47
2022-10-19T17:37:05.561Z,101235.62
2022-10-19T17:39:33.366Z,101237.75
2022-10-19T17:42:03.221Z,101238.28
2022-10-19T17:44:31.551Z,101244.25
2022-10-19T17:47:01.128Z,101238.00
2022-10-19T17:49:29.892Z,101259.97
2022-10-19T17:51:58.433Z,101261.44
2022-10-19T17:54:26.434Z,101262.66
2022-10-19T17:56:54.301Z,101255.16
2022-10-19T17:59:30.471Z,101262.94
2022-10-19T18:02:04.845Z,101264.59
2022-10-19T18:04:32.889Z,101266.25
2022-10-19T18:07:00.580Z,101259.75
2022-10-19T18:09:29.544Z,101266.53
2022-10-19T18:11:57.579Z,101265.97
2022-10-19T18:14:25.308Z,101261.66
2022-10-19T18:16:53.075Z,101268.75
2022-10-19T18:19:21.092Z,101268.16
2022-10-19T18:21:49.195Z,101271.34
2022-10-19T18:24:20.018Z,101279.53
2022-10-19T18:26:49.867Z,101269.38
2022-10-19T18:29:23.822Z,101271.44
2022-10-19T18:31:52.947Z,101277.69
2022-10-19T18:34:24.236Z,101277.37
2022-10-19T18:36:53.780Z,101277.37
2022-10-19T18:39:22.074Z,101270.16
2022-10-19T18:41:53.908Z,101261.41
2022-10-19T18:44:26.603Z,101273.91
2022-10-19T18:46:56.532Z,101283.88
2022-10-19T18:49:25.186Z,101279.69
2022-10-19T18:51:55.422Z,101272.41
2022-10-19T18:54:26.293Z,101274.34
2022-10-19T18:56:55.133Z,101266.94
2022-10-19T18:59:23.030Z,101271.44
2022-10-19T19:01:51.289Z,101285.75
2022-10-19T19:04:19.145Z,101286.84
2022-10-19T19:06:46.807Z,101282.22
2022-10-19T19:09:15.045Z,101281.19
2022-10-19T19:11:42.780Z,101282.38
2022-10-19T19:14:16.241Z,101278.72
2022-10-19T19:16:45.175Z,101284.00
2022-10-19T19:19:15.195Z,101288.47
2022-10-19T19:21:44.555Z,101296.19
2022-10-19T19:24:15.849Z,101292.84
2022-10-19T19:26:48.418Z,101294.19
2022-10-19T19:29:17.799Z,101293.59
2022-10-19T19:31:47.142Z,101295.38
2022-10-19T19:34:14.914Z,101298.41
2022-10-19T19:36:47.600Z,101295.06
2022-10-19T19:39:21.036Z,101300.59
2022-10-19T19:41:49.764Z,101301.56
2022-10-19T19:44:17.953Z,101308.03
2022-10-19T19:46:45.748Z,101306.00
2022-10-19T19:49:14.055Z,101296.78
2022-10-19T19:51:42.403Z,101299.66
2022-10-19T19:54:11.171Z,101314.00
2022-10-19T19:56:40.047Z,101306.09
2022-10-19T19:59:09.980Z,101309.34
2022-10-19T20:01:39.361Z,101307.31
2022-10-19T20:04:07.267Z,101309.47
2022-10-19T20:06:37.631Z,101314.97
2022-10-19T20:09:07.234Z,101302.41
2022-10-19T20:11:38.345Z,101317.84
2022-10-19T20:14:07.550Z,101322.38
2022-10-19T20:16:36.576Z,101321.44
2022-10-19T20:19:11.151Z,101328.00
2022-10-19T20:21:39.856Z,101332.91
2022-10-19T20:24:07.780Z,101334.34
2022-10-19T20:26:35.974Z,101329.31
2022-10-19T20:29:06.568Z,101322.50
2022-10-19T20:31:39.567Z,101326.44
2022-10-19T20:34:12.208Z,101333.34
2022-10-19T20:36:41.891Z,101332.00
2022-10-19T20:39:11.185Z,101332.25
2022-10-19T20:41:39.169Z,101325.94
2022-10-19T20:44:06.740Z,101325.25
2022-10-19T20:46:34.996Z,101334.87
2022-10-19T20:49:03.133Z,101323.28
2022-10-19T20:51:32.934Z,101328.53
2022-10-19T20:54:03.604Z,101331.09
2022-10-19T20:56:33.965Z,101332.37
2022-10-19T20:59:04.962Z,101330.47
2022-10-19T21:01:34.706Z,101337.16
2022-10-19T21:04:04.779Z,101339.78
2022-10-19T21:06:34.444Z,101346.63
2022-10-19T21:09:02.413Z,101353.03
2022-10-19T21:11:35.893Z,101353.66
2022-10-19T21:14:07.556Z,101356.16
2022-10-19T21:16:35.346Z,101371.34
2022-10-19T21:19:05.810Z,101372.47
2022-10-19T21:21:36.099Z,101366.94
2022-10-19T21:24:07.869Z,101365.66
2022-10-19T21:26:36.548Z,101371.44
2022-10-19T21:29:06.127Z,101375.78
2022-10-19T21:31:33.557Z,101374.12
2022-10-19T21:34:04.747Z,101376.84
2022-10-19T21:36:32.876Z,101370.06
2022-10-19T21:39:00.440Z,101374.50
2022-10-19T21:41:27.856Z,101386.97
2022-10-19T21:43:55.526Z,101381.00
2022-10-19T21:46:23.815Z,101392.75
2022-10-19T21:48:52.192Z,101400.56
2022-10-19T21:51:22.984Z,101398.06
2022-10-19T21:53:50.704Z,101400.69
2022-10-19T21:56:18.538Z,101385.44
2022-10-19T21:58:47.599Z,101390.50
2022-10-19T22:01:15.854Z,101403.41
2022-10-19T22:03:44.183Z,101405.00
2022-10-19T22:06:12.871Z,101399.53
2022-10-19T22:08:45.107Z,101399.72
2022-10-19T22:11:14.447Z,101396.16
2022-10-19T22:13:42.417Z,101399.59
2022-10-19T22:16:20.349Z,101399.37
2022-10-19T22:18:48.969Z,101389.37
2022-10-19T22:21:23.170Z,101393.16
2022-10-19T22:23:56.592Z,101402.53
2022-10-19T22:26:29.928Z,101399.19
2022-10-19T22:28:59.529Z,101401.09
2022-10-19T22:31:29.369Z,101397.28
2022-10-19T22:33:57.331Z,101403.41
2022-10-19T22:36:25.025Z,101404.81
2022-10-19T22:38:52.369Z,101404.59
2022-10-19T22:41:19.807Z,101401.44
2022-10-19T22:43:47.457Z,101406.81
2022-10-19T22:46:14.844Z,101413.75
2022-10-19T22:48:42.349Z,101395.47
2022-10-19T22:51:10.079Z,101408.34
2022-10-19T22:53:37.434Z,101417.28
2022-10-19T22:56:05.616Z,101421.06
2022-10-19T22:58:33.475Z,101414.56
2022-10-19T23:01:03.595Z,101413.50
2022-10-19T23:03:31.010Z,101410.66
2022-10-19T23:05:59.036Z,101421.56
2022-10-19T23:08:27.773Z,101424.66
2022-10-19T23:10:55.473Z,101422.38
2022-10-19T23:13:23.667Z,101418.59
2022-10-19T23:15:51.172Z,101424.84
2022-10-19T23:18:19.472Z,101430.72
2022-10-19T23:20:59.022Z,101434.09
2022-10-19T23:23:27.444Z,101430.28
2022-10-19T23:26:06.236Z,101442.00
2022-10-19T23:28:35.779Z,101439.72
2022-10-19T23:31:06.629Z,101437.34
2022-10-19T23:33:34.954Z,101440.25
2022-10-19T23:36:08.791Z,101430.25
2022-10-19T23:38:36.369Z,101437.19
2022-10-19T23:41:04.159Z,101447.56
2022-10-19T23:43:31.988Z,101450.06
2022-10-19T23:45:59.513Z,101460.56
2022-10-19T23:48:28.240Z,101463.16
2022-10-19T23:50:59.728Z,101458.88
2022-10-19T23:53:28.669Z,101468.13
2022-10-19T23:56:05.348Z,101475.69
2022-10-19T23:58:33.848Z,101471.97
